KOLS/OLS METAR and TAF weather

Enter ICAO airport designator
Station Type Date Time Source
KOLS METAR 2020/07/12 06:54 UTC NOAA

KOLS 120654Z AUTO 11004KT 10SM CLR 27/14 A3009 RMK AO2 SLP105 T02670144 404060222


Station Type Date Time Source
KOLS Decoded METAR 2020/07/12 06:54 UTC NOAA

NOGALES INTERNATIONAL AIRPORT , AZ, United States (KOLS) 31-25N 110-51W 1184M
Jul 12, 2020 - 02:54 AM EDT / 2020.07.12 0654 UTC
Wind: from the ESE (110 degrees) at 5 MPH (4 KT):0
Visibility: 10 mile(s):0
Sky conditions: clear
Temperature: 80.1 F (26.7 C)
Dew Point: 57.9 F (14.4 C)
Relative Humidity: 46%
Pressure (altimeter): 30.09 in. Hg (1018 hPa)
ob: KOLS 120654Z AUTO 11004KT 10SM CLR 27/14 A3009 RMK AO2 SLP105 T02670144 404060222
cycle: 7

Station Type Date Time Source
KOLS TAF 2020/07/12 06:22 UTC NOAA

TAF KOLS 120520Z 1206/1306 10010KT P6SM FEW100 BKN250
FM121200 VRB04KT P6SM FEW100 SCT250
FM122000 20008KT P6SM VCTS BKN050CB BKN250
FM130300 14007KT P6SM SCT100 BKN250

Example: see airport list